»·PEaware :: N757PC KHQM-KOTH

N757PC :: KHQM-KOTH

FLIGHT INFORMATION

Flight Status: Arrived
Operator: Privately registered:
United States
More flights under this callsign
Pilot: Duane J. (9702)
Aircraft: Unknown
(LEG2)
More flights by this aircraft type
Origin: KHQM Bowerman
United States
Destination: KOTH North Bend Mun
United States
More flights between these airports :: More routes between these airports
Route: WAVLU V27 YUPVU
File this flight plan on PilotEdge
Remarks:
Altitude:
(Current/Filed)
22,000ft
Speed:
(Current/Filed)
250kts
Departed: 23-May-18 04:11 PM
Arrived: 23-May-18 05:22 PM
Distance/Time
Traveled:
214nm/1:11
Distance/Time
To Go:
Arrived

Flight Plot

Page will automatically refresh every two minutes.

Flight plan parsing failed; only flown route is shown


Map Options




Map Legend


Flown Route
Filed Route
Departure Airport
Arrival Airport
Navaid (VOR, NDB)
Fix

Horizontal Profiles

Position Reports

Time Latitude Longitude Heading Altitude Ground
Speed
23-May-18 15:59 46.973759 -123.927634 74 17ft 0kts
23-May-18 16:00 46.973759 -123.927634 74 17ft 0kts
23-May-18 16:01 46.973759 -123.927633 73 17ft 0kts
23-May-18 16:02 46.973759 -123.927633 73 17ft 0kts
23-May-18 16:03 46.973759 -123.927633 73 17ft 0kts
23-May-18 16:04 46.973759 -123.927633 73 17ft 0kts
23-May-18 16:05 46.973759 -123.927633 73 17ft 0kts
23-May-18 16:06 46.973759 -123.927633 73 17ft 0kts
23-May-18 16:07 46.973759 -123.927633 73 17ft 0kts
23-May-18 16:08 46.973759 -123.927633 73 17ft 0kts
23-May-18 16:09 46.972862 -123.926944 162 17ft 0kts
23-May-18 16:10 46.972443 -123.926872 225 17ft 4kts
23-May-18 16:11 46.967216 -123.966604 255 865ft 162kts
23-May-18 16:12 46.926897 -123.996101 188 3135ft 187kts
23-May-18 16:13 46.885708 -124.039821 223 5657ft 189kts
23-May-18 16:14 46.847680 -124.091098 220 8119ft 184kts
23-May-18 16:15 46.801882 -124.097526 141 10346ft 197kts
23-May-18 16:16 46.752337 -124.076962 189 12587ft 198kts
23-May-18 16:17 46.698998 -124.063856 166 15070ft 192kts
23-May-18 16:18 46.646283 -124.045174 166 17173ft 197kts
23-May-18 16:19 46.592888 -124.026800 166 19164ft 194kts
23-May-18 16:20 46.539751 -124.008591 167 20909ft 201kts
23-May-18 16:21 46.483121 -123.989272 167 21998ft 225kts
23-May-18 16:22 46.415827 -123.966332 167 21972ft 265kts
23-May-18 16:23 46.342327 -123.941343 167 21967ft 268kts
23-May-18 16:24 46.271336 -123.917275 167 21965ft 258kts
23-May-18 16:25 46.202125 -123.893863 167 21967ft 254kts
23-May-18 16:26 46.132730 -123.879001 184 21969ft 251kts
23-May-18 16:27 46.063324 -123.890760 185 21969ft 253kts
23-May-18 16:28 45.993023 -123.899752 184 21970ft 254kts
23-May-18 16:29 45.922098 -123.908107 184 21973ft 255kts
23-May-18 16:30 45.851317 -123.916314 184 21978ft 255kts
23-May-18 16:31 45.780538 -123.924488 184 21983ft 255kts
23-May-18 16:32 45.709489 -123.932672 184 21989ft 255kts
23-May-18 16:33 45.638599 -123.940816 184 21994ft 256kts
23-May-18 16:34 45.567339 -123.948982 184 21996ft 256kts
23-May-18 16:35 45.496244 -123.957108 184 21998ft 256kts
23-May-18 16:36 45.425086 -123.965215 184 21998ft 256kts
23-May-18 16:37 45.353681 -123.973332 184 21994ft 257kts
23-May-18 16:38 45.282506 -123.981402 184 21991ft 257kts
23-May-18 16:39 45.211316 -123.989455 184 21989ft 257kts
23-May-18 16:40 45.139894 -123.997512 184 21998ft 257kts
23-May-18 16:41 45.068913 -124.005502 184 21999ft 255kts
23-May-18 16:42 44.998510 -124.013411 184 22002ft 253kts
23-May-18 16:43 44.928155 -124.021293 184 22007ft 253kts
23-May-18 16:44 44.858147 -124.029112 184 22013ft 252kts
23-May-18 16:45 44.787940 -124.036930 184 22029ft 252kts
23-May-18 16:46 44.718010 -124.044699 184 22035ft 252kts
23-May-18 16:47 44.647890 -124.052476 184 21752ft 254kts
23-May-18 16:48 44.575063 -124.060551 184 20483ft 267kts
23-May-18 16:49 44.501493 -124.067574 183 19185ft 263kts
23-May-18 16:50 44.428603 -124.074440 183 17716ft 263kts
23-May-18 16:51 44.355367 -124.081342 183 16215ft 260kts
23-May-18 16:52 44.284934 -124.087971 183 14715ft 248kts
23-May-18 16:53 44.217765 -124.094276 183 13216ft 237kts
23-May-18 16:54 44.153083 -124.100331 183 11712ft 228kts
23-May-18 16:55 44.090541 -124.106172 184 10215ft 223kts
23-May-18 16:56 44.030321 -124.111744 184 9981ft 213kts
23-May-18 16:57 43.971940 -124.117160 184 9980ft 209kts
23-May-18 16:58 43.914152 -124.122530 184 9980ft 208kts
23-May-18 16:59 43.856356 -124.127923 184 9980ft 207kts
23-May-18 17:00 43.798744 -124.133081 182 9980ft 207kts
23-May-18 17:01 43.745650 -124.093469 150 8838ft 234kts
23-May-18 17:02 43.688647 -124.046397 152 7339ft 237kts
23-May-18 17:03 43.632720 -124.060401 228 6074ft 211kts
23-May-18 17:04 43.592836 -124.118716 223 4751ft 213kts
23-May-18 17:05 43.550873 -124.176409 226 4117ft 211kts
23-May-18 17:06 43.509938 -124.233531 225 4117ft 208kts
23-May-18 17:07 43.469118 -124.290453 225 4121ft 208kts
23-May-18 17:08 43.428395 -124.347133 225 4121ft 208kts
23-May-18 17:09 43.387568 -124.403844 225 4101ft 209kts
23-May-18 17:10 43.346567 -124.460682 225 4098ft 208kts
23-May-18 17:11 43.306078 -124.515395 217 3961ft 193kts
23-May-18 17:12 43.254378 -124.540506 200 2871ft 200kts
23-May-18 17:13 43.241752 -124.593385 323 2415ft 189kts
23-May-18 17:14 43.284078 -124.575186 69 2402ft 190kts
23-May-18 17:15 43.308923 -124.512854 51 2388ft 184kts
23-May-18 17:16 43.334741 -124.455052 58 1724ft 170kts
23-May-18 17:17 43.356348 -124.402701 57 1478ft 133kts
23-May-18 17:18 43.373388 -124.361392 56 1298ft 121kts
23-May-18 17:19 43.389882 -124.321159 57 1085ft 125kts
23-May-18 17:20 43.405061 -124.284071 55 417ft 97kts
23-May-18 17:21 43.416956 -124.255499 63 11ft 56kts
23-May-18 17:22 43.419378 -124.247308 149 11ft 3kts
23-May-18 17:23 43.416137 -124.245762 148 11ft 15kts
23-May-18 17:24 43.415774 -124.245947 146 11ft 0kts

Navigation Log

Ident Type
Flight plan parsing failed, navigation log unavailable